createdAt,value
2018-03-23T11:56:21.807Z,12.10
2018-03-23T11:57:22.501Z,5.40
2018-03-23T11:58:23.325Z,5.70
2018-03-23T11:59:24.980Z,5.60
2018-03-23T12:00:25.689Z,4.90
2018-03-23T12:01:26.362Z,4.80
2018-03-23T12:02:27.050Z,6.00
2018-03-23T12:03:27.938Z,5.60
2018-03-23T12:04:29.718Z,4.80
2018-03-23T12:05:37.485Z,5.10
2018-03-23T12:06:39.030Z,4.90
2018-03-23T12:07:39.946Z,4.80
2018-03-23T12:08:43.778Z,4.90
2018-03-23T12:09:44.656Z,4.10
2018-03-23T12:10:45.379Z,4.10
2018-03-23T12:11:48.551Z,4.60
2018-03-23T12:12:50.248Z,4.60
2018-03-23T12:13:57.091Z,5.00
2018-03-23T12:14:58.425Z,5.70
2018-03-23T12:15:59.165Z,5.70
2018-03-23T12:17:01.344Z,5.90
2018-03-23T12:18:04.949Z,5.60
2018-03-23T12:19:05.714Z,5.60
2018-03-23T12:20:06.447Z,5.80
2018-03-23T12:21:07.306Z,5.70
2018-03-23T12:22:08.047Z,5.90
2018-03-23T12:23:09.579Z,5.70
2018-03-23T12:24:10.996Z,5.10
2018-03-23T12:25:11.690Z,5.70
2018-03-23T12:26:12.391Z,5.80
2018-03-23T12:27:13.276Z,6.10
2018-03-23T12:28:14.936Z,7.00
2018-03-23T12:30:04.683Z,6.20
2018-03-23T12:30:57.883Z,6.60
2018-03-23T12:32:12.925Z,6.70
2018-03-23T12:33:14.366Z,7.10
2018-03-23T12:34:15.073Z,7.10
2018-03-23T12:35:15.827Z,7.40
2018-03-23T12:36:17.390Z,7.50
2018-03-23T12:37:18.151Z,7.10
2018-03-23T12:38:21.743Z,7.00
2018-03-23T12:39:41.187Z,7.50
2018-03-23T12:40:42.048Z,7.50
2018-03-23T12:41:42.746Z,7.00
2018-03-23T12:42:43.399Z,7.70
2018-03-23T12:43:44.402Z,7.90
2018-03-23T12:44:45.117Z,8.20
2018-03-23T12:46:05.895Z,7.30
2018-03-23T12:47:06.618Z,7.40
2018-03-23T12:48:10.897Z,7.60
2018-03-23T12:49:11.618Z,7.60
2018-03-23T12:50:12.373Z,8.80
2018-03-23T12:51:13.075Z,8.30
2018-03-23T12:52:13.827Z,8.00
2018-03-23T12:53:14.555Z,8.00
2018-03-23T12:54:15.387Z,8.90
2018-03-23T12:55:16.194Z,8.70
2018-03-23T12:56:17.015Z,8.50
2018-03-23T12:57:17.731Z,8.00
2018-03-23T12:59:11.416Z,8.40
2018-03-23T13:00:12.398Z,7.70
2018-03-23T13:01:17.903Z,9.10
2018-03-23T13:02:42.796Z,8.70
2018-03-23T13:03:43.610Z,8.00
2018-03-23T13:05:09.060Z,8.50
2018-03-23T13:06:12.581Z,10.10
2018-03-23T13:07:13.391Z,9.80
2018-03-23T13:08:14.135Z,11.40
2018-03-23T13:10:15.166Z,11.70
2018-03-23T13:12:16.170Z,10.60
2018-03-23T13:13:37.083Z,12.40
2018-03-23T13:14:43.127Z,10.90
2018-03-23T13:16:02.015Z,10.90
2018-03-23T13:17:02.692Z,10.80
2018-03-23T13:22:36.452Z,9.40
2018-03-23T13:23:42.178Z,9.40
2018-03-23T13:24:42.896Z,9.00
2018-03-23T14:15:08.540Z,0.00
